sensor_id;sensor_type;location;lat;lon;timestamp;pressure;altitude;pressure_sealevel;temperature;humidity
51468;BME280;37545;45.302;-122.946;2023-01-29T00:00:14;101105.53;;;9.58;85.78
51468;BME280;37545;45.302;-122.946;2023-01-29T00:02:44;101107.16;;;9.56;85.08
51468;BME280;37545;45.302;-122.946;2023-01-29T00:05:13;101096.69;;;9.53;85.90
51468;BME280;37545;45.302;-122.946;2023-01-29T00:07:42;101092.38;;;9.52;85.74
51468;BME280;37545;45.302;-122.946;2023-01-29T00:10:11;101088.03;;;9.51;87.18
51468;BME280;37545;45.302;-122.946;2023-01-29T00:12:39;101081.09;;;9.50;86.78
51468;BME280;37545;45.302;-122.946;2023-01-29T00:15:08;101083.56;;;9.47;86.47
51468;BME280;37545;45.302;-122.946;2023-01-29T00:17:37;101087.78;;;9.44;86.37
51468;BME280;37545;45.302;-122.946;2023-01-29T00:20:08;101088.47;;;9.40;86.61
51468;BME280;37545;45.302;-122.946;2023-01-29T00:22:37;101082.38;;;9.38;88.79
51468;BME280;37545;45.302;-122.946;2023-01-29T00:25:07;101082.19;;;9.34;90.08
51468;BME280;37545;45.302;-122.946;2023-01-29T00:27:35;101081.91;;;9.26;91.00
51468;BME280;37545;45.302;-122.946;2023-01-29T00:30:05;101081.63;;;9.20;92.69
51468;BME280;37545;45.302;-122.946;2023-01-29T00:32:38;101078.88;;;9.15;93.52
51468;BME280;37545;45.302;-122.946;2023-01-29T00:35:09;101086.50;;;9.12;93.54
51468;BME280;37545;45.302;-122.946;2023-01-29T00:37:38;101085.44;;;9.07;94.65
51468;BME280;37545;45.302;-122.946;2023-01-29T00:40:08;101087.88;;;9.04;94.34
51468;BME280;37545;45.302;-122.946;2023-01-29T00:42:36;101085.97;;;9.00;94.03
51468;BME280;37545;45.302;-122.946;2023-01-29T00:45:22;101094.44;;;8.96;94.34
51468;BME280;37545;45.302;-122.946;2023-01-29T00:47:50;101095.19;;;8.93;95.07
51468;BME280;37545;45.302;-122.946;2023-01-29T00:50:21;101093.34;;;8.91;95.77
51468;BME280;37545;45.302;-122.946;2023-01-29T00:52:50;101095.72;;;8.86;95.69
51468;BME280;37545;45.302;-122.946;2023-01-29T00:55:20;101096.38;;;8.80;96.64
51468;BME280;37545;45.302;-122.946;2023-01-29T00:57:48;101094.34;;;8.73;96.90
51468;BME280;37545;45.302;-122.946;2023-01-29T01:00:18;101094.34;;;8.73;98.03
51468;BME280;37545;45.302;-122.946;2023-01-29T01:02:46;101084.03;;;8.73;98.17
51468;BME280;37545;45.302;-122.946;2023-01-29T01:05:34;101085.41;;;8.65;98.02
51468;BME280;37545;45.302;-122.946;2023-01-29T01:08:04;101088.38;;;8.74;97.99
51468;BME280;37545;45.302;-122.946;2023-01-29T01:11:02;101094.47;;;8.76;99.08
51468;BME280;37545;45.302;-122.946;2023-01-29T01:13:31;101085.84;;;8.76;98.06
51468;BME280;37545;45.302;-122.946;2023-01-29T01:16:00;101094.41;;;8.75;97.79
51468;BME280;37545;45.302;-122.946;2023-01-29T01:18:29;101087.50;;;8.74;97.18
51468;BME280;37545;45.302;-122.946;2023-01-29T01:21:00;101096.97;;;8.75;96.98
51468;BME280;37545;45.302;-122.946;2023-01-29T01:23:28;101100.38;;;8.74;96.83
51468;BME280;37545;45.302;-122.946;2023-01-29T01:25:57;101090.91;;;8.73;95.80
51468;BME280;37545;45.302;-122.946;2023-01-29T01:28:26;101092.56;;;8.72;96.98
51468;BME280;37545;45.302;-122.946;2023-01-29T01:30:55;101099.50;;;8.73;97.73
51468;BME280;37545;45.302;-122.946;2023-01-29T01:33:23;101104.59;;;8.72;97.67
51468;BME280;37545;45.302;-122.946;2023-01-29T01:35:52;101109.47;;;8.66;97.42
51468;BME280;37545;45.302;-122.946;2023-01-29T01:38:22;101103.53;;;8.47;88.73
51468;BME280;37545;45.302;-122.946;2023-01-29T01:40:50;101115.88;;;8.35;86.79
51468;BME280;37545;45.302;-122.946;2023-01-29T01:43:19;101120.34;;;8.19;85.65
51468;BME280;37545;45.302;-122.946;2023-01-29T01:45:48;101106.56;;;8.00;85.16
51468;BME280;37545;45.302;-122.946;2023-01-29T01:48:19;101111.97;;;7.86;86.49
51468;BME280;37545;45.302;-122.946;2023-01-29T01:50:51;101122.28;;;7.68;86.73
51468;BME280;37545;45.302;-122.946;2023-01-29T01:53:27;101120.69;;;7.52;87.17
51468;BME280;37545;45.302;-122.946;2023-01-29T01:55:59;101125.69;;;7.31;87.43
51468;BME280;37545;45.302;-122.946;2023-01-29T01:58:32;101127.41;;;7.14;89.95
51468;BME280;37545;45.302;-122.946;2023-01-29T02:01:03;101114.84;;;7.03;91.62
51468;BME280;37545;45.302;-122.946;2023-01-29T02:03:36;101123.66;;;6.90;92.58
51468;BME280;37545;45.302;-122.946;2023-01-29T02:06:24;101128.75;;;6.72;94.49
51468;BME280;37545;45.302;-122.946;2023-01-29T02:09:14;101133.09;;;6.57;95.62
51468;BME280;37545;45.302;-122.946;2023-01-29T02:12:02;101129.81;;;6.43;95.41
51468;BME280;37545;45.302;-122.946;2023-01-29T02:14:32;101134.47;;;6.34;97.02
51468;BME280;37545;45.302;-122.946;2023-01-29T02:17:04;101135.53;;;6.21;97.10
51468;BME280;37545;45.302;-122.946;2023-01-29T02:19:42;101145.31;;;6.12;97.91
51468;BME280;37545;45.302;-122.946;2023-01-29T02:22:28;101143.03;;;6.01;96.79
51468;BME280;37545;45.302;-122.946;2023-01-29T02:28:21;101153.59;;;5.91;98.78
51468;BME280;37545;45.302;-122.946;2023-01-29T02:31:05;101160.13;;;5.86;98.29
51468;BME280;37545;45.302;-122.946;2023-01-29T02:33:47;101166.56;;;5.78;99.93
51468;BME280;37545;45.302;-122.946;2023-01-29T02:36:28;101171.25;;;5.70;98.73
51468;BME280;37545;45.302;-122.946;2023-01-29T02:39:05;101155.78;;;5.54;98.46
51468;BME280;37545;45.302;-122.946;2023-01-29T02:41:41;101175.44;;;5.53;100.00
51468;BME280;37545;45.302;-122.946;2023-01-29T02:44:18;101181.81;;;5.45;100.00
51468;BME280;37545;45.302;-122.946;2023-01-29T02:46:54;101179.69;;;5.38;100.00
51468;BME280;37545;45.302;-122.946;2023-01-29T02:49:31;101191.28;;;5.31;100.00
51468;BME280;37545;45.302;-122.946;2023-01-29T02:52:05;101196.88;;;5.24;100.00
51468;BME280;37545;45.302;-122.946;2023-01-29T02:54:42;101198.19;;;5.17;100.00
51468;BME280;37545;45.302;-122.946;2023-01-29T02:57:16;101202.78;;;5.08;100.00
51468;BME280;37545;45.302;-122.946;2023-01-29T02:59:51;101210.31;;;5.05;100.00
51468;BME280;37545;45.302;-122.946;2023-01-29T03:02:27;101210.66;;;4.96;100.00
51468;BME280;37545;45.302;-122.946;2023-01-29T03:05:00;101219.16;;;4.95;100.00
51468;BME280;37545;45.302;-122.946;2023-01-29T03:07:33;101222.50;;;4.94;100.00
51468;BME280;37545;45.302;-122.946;2023-01-29T03:10:14;101223.63;;;4.85;100.00
51468;BME280;37545;45.302;-122.946;2023-01-29T03:12:45;101227.97;;;4.86;100.00
51468;BME280;37545;45.302;-122.946;2023-01-29T03:15:19;101233.28;;;4.89;100.00
51468;BME280;37545;45.302;-122.946;2023-01-29T03:17:54;101233.28;;;4.89;100.00
51468;BME280;37545;45.302;-122.946;2023-01-29T03:20:29;101240.69;;;4.84;100.00
51468;BME280;37545;45.302;-122.946;2023-01-29T03:23:05;101240.22;;;4.76;100.00
51468;BME280;37545;45.302;-122.946;2023-01-29T03:25:40;101249.13;;;4.68;100.00
51468;BME280;37545;45.302;-122.946;2023-01-29T03:28:27;101251.69;;;4.68;100.00
51468;BME280;37545;45.302;-122.946;2023-01-29T03:31:16;101253.00;;;4.61;100.00
51468;BME280;37545;45.302;-122.946;2023-01-29T03:34:08;101256.84;;;4.55;100.00
51468;BME280;37545;45.302;-122.946;2023-01-29T03:36:48;101264.09;;;4.47;100.00
51468;BME280;37545;45.302;-122.946;2023-01-29T03:39:24;101271.47;;;4.43;100.00
51468;BME280;37545;45.302;-122.946;2023-01-29T03:41:57;101272.06;;;4.38;100.00
51468;BME280;37545;45.302;-122.946;2023-01-29T03:44:29;101269.34;;;4.35;100.00
51468;BME280;37545;45.302;-122.946;2023-01-29T03:47:11;101268.34;;;4.33;100.00
51468;BME280;37545;45.302;-122.946;2023-01-29T03:49:53;101266.66;;;4.34;100.00
51468;BME280;37545;45.302;-122.946;2023-01-29T03:52:26;101287.94;;;4.33;100.00
51468;BME280;37545;45.302;-122.946;2023-01-29T03:55:01;101283.91;;;4.23;100.00
51468;BME280;37545;45.302;-122.946;2023-01-29T03:57:35;101287.28;;;4.22;100.00
51468;BME280;37545;45.302;-122.946;2023-01-29T04:00:09;101287.47;;;4.25;100.00
51468;BME280;37545;45.302;-122.946;2023-01-29T04:02:48;101282.50;;;4.28;100.00
51468;BME280;37545;45.302;-122.946;2023-01-29T04:05:21;101289.44;;;4.29;100.00
51468;BME280;37545;45.302;-122.946;2023-01-29T04:07:55;101296.53;;;4.33;100.00
51468;BME280;37545;45.302;-122.946;2023-01-29T04:10:27;101299.97;;;4.34;100.00
51468;BME280;37545;45.302;-122.946;2023-01-29T04:12:59;101298.59;;;4.26;100.00
51468;BME280;37545;45.302;-122.946;2023-01-29T04:15:31;101302.34;;;4.31;100.00
51468;BME280;37545;45.302;-122.946;2023-01-29T04:18:02;101297.41;;;4.34;100.00
51468;BME280;37545;45.302;-122.946;2023-01-29T04:20:31;101303.31;;;4.33;99.11
51468;BME280;37545;45.302;-122.946;2023-01-29T04:23:01;101309.34;;;4.33;96.16
51468;BME280;37545;45.302;-122.946;2023-01-29T04:25:36;101311.38;;;4.39;95.57
51468;BME280;37545;45.302;-122.946;2023-01-29T04:28:15;101315.81;;;4.41;94.29
51468;BME280;37545;45.302;-122.946;2023-01-29T04:30:52;101314.34;;;4.45;94.11
51468;BME280;37545;45.302;-122.946;2023-01-29T04:33:29;101326.28;;;4.45;92.21
51468;BME280;37545;45.302;-122.946;2023-01-29T04:36:12;101335.03;;;4.48;93.92
51468;BME280;37545;45.302;-122.946;2023-01-29T04:38:50;101338.56;;;4.50;93.53
51468;BME280;37545;45.302;-122.946;2023-01-29T04:41:24;101338.28;;;4.46;93.93
51468;BME280;37545;45.302;-122.946;2023-01-29T04:44:01;101359.19;;;4.52;92.97
51468;BME280;37545;45.302;-122.946;2023-01-29T04:46:39;101356.69;;;4.53;92.25
51468;BME280;37545;45.302;-122.946;2023-01-29T04:49:24;101370.44;;;4.54;93.12
51468;BME280;37545;45.302;-122.946;2023-01-29T04:51:59;101372.28;;;4.56;92.93
51468;BME280;37545;45.302;-122.946;2023-01-29T04:54:39;101370.50;;;4.55;91.87
51468;BME280;37545;45.302;-122.946;2023-01-29T04:57:16;101383.41;;;4.57;91.83
51468;BME280;37545;45.302;-122.946;2023-01-29T04:59:56;101392.09;;;4.59;90.50
51468;BME280;37545;45.302;-122.946;2023-01-29T05:02:26;101398.09;;;4.59;90.70
51468;BME280;37545;45.302;-122.946;2023-01-29T05:04:58;101403.34;;;4.61;90.31
51468;BME280;37545;45.302;-122.946;2023-01-29T05:07:28;101408.47;;;4.61;90.28
51468;BME280;37545;45.302;-122.946;2023-01-29T05:09:58;101407.47;;;4.59;89.40
51468;BME280;37545;45.302;-122.946;2023-01-29T05:12:28;101414.19;;;4.57;87.25
51468;BME280;37545;45.302;-122.946;2023-01-29T05:15:00;101418.31;;;4.55;86.08
51468;BME280;37545;45.302;-122.946;2023-01-29T05:17:30;101413.06;;;4.53;87.23
51468;BME280;37545;45.302;-122.946;2023-01-29T05:20:01;101417.31;;;4.53;86.35
51468;BME280;37545;45.302;-122.946;2023-01-29T05:22:30;101419.81;;;4.51;85.62
51468;BME280;37545;45.302;-122.946;2023-01-29T05:24:58;101416.94;;;4.47;84.28
51468;BME280;37545;45.302;-122.946;2023-01-29T05:27:30;101415.56;;;4.38;85.09
51468;BME280;37545;45.302;-122.946;2023-01-29T05:30:18;101426.09;;;4.43;82.85
51468;BME280;37545;45.302;-122.946;2023-01-29T05:32:47;101439.69;;;4.42;85.02
51468;BME280;37545;45.302;-122.946;2023-01-29T05:35:17;101435.06;;;4.36;82.53
51468;BME280;37545;45.302;-122.946;2023-01-29T05:37:46;101441.00;;;4.35;82.80
51468;BME280;37545;45.302;-122.946;2023-01-29T05:40:14;101447.75;;;4.35;82.80
51468;BME280;37545;45.302;-122.946;2023-01-29T05:42:43;101444.31;;;4.34;81.80
51468;BME280;37545;45.302;-122.946;2023-01-29T05:45:11;101443.31;;;4.32;81.32
51468;BME280;37545;45.302;-122.946;2023-01-29T05:47:40;101452.59;;;4.30;81.19
51468;BME280;37545;45.302;-122.946;2023-01-29T05:50:09;101456.53;;;4.25;80.96
51468;BME280;37545;45.302;-122.946;2023-01-29T05:52:40;101458.66;;;4.19;80.74
51468;BME280;37545;45.302;-122.946;2023-01-29T05:55:09;101460.03;;;4.14;80.07
51468;BME280;37545;45.302;-122.946;2023-01-29T05:57:39;101470.22;;;4.12;80.37
51468;BME280;37545;45.302;-122.946;2023-01-29T06:00:09;101469.97;;;4.09;80.29
51468;BME280;37545;45.302;-122.946;2023-01-29T06:02:38;101481.78;;;4.07;80.86
51468;BME280;37545;45.302;-122.946;2023-01-29T06:05:08;101485.63;;;4.01;80.38
51468;BME280;37545;45.302;-122.946;2023-01-29T06:07:36;101481.75;;;3.94;79.62
51468;BME280;37545;45.302;-122.946;2023-01-29T06:10:14;101507.28;;;3.92;79.51
51468;BME280;37545;45.302;-122.946;2023-01-29T06:12:43;101505.28;;;3.88;79.35
51468;BME280;37545;45.302;-122.946;2023-01-29T06:15:12;101511.97;;;3.86;79.17
51468;BME280;37545;45.302;-122.946;2023-01-29T06:17:41;101517.56;;;3.81;79.66
51468;BME280;37545;45.302;-122.946;2023-01-29T06:20:11;101516.66;;;3.80;78.48
51468;BME280;37545;45.302;-122.946;2023-01-29T06:22:39;101517.44;;;3.79;77.79
51468;BME280;37545;45.302;-122.946;2023-01-29T06:25:08;101519.56;;;3.73;76.99
51468;BME280;37545;45.302;-122.946;2023-01-29T06:27:39;101526.06;;;3.68;75.31
51468;BME280;37545;45.302;-122.946;2023-01-29T06:30:08;101529.41;;;3.67;76.21
51468;BME280;37545;45.302;-122.946;2023-01-29T06:32:37;101533.72;;;3.68;76.61
51468;BME280;37545;45.302;-122.946;2023-01-29T06:35:06;101539.53;;;3.65;76.13
51468;BME280;37545;45.302;-122.946;2023-01-29T06:37:35;101537.66;;;3.63;74.19
51468;BME280;37545;45.302;-122.946;2023-01-29T06:40:04;101545.09;;;3.60;74.16
51468;BME280;37545;45.302;-122.946;2023-01-29T06:42:34;101546.56;;;3.56;73.04
51468;BME280;37545;45.302;-122.946;2023-01-29T06:45:05;101548.25;;;3.55;73.09
51468;BME280;37545;45.302;-122.946;2023-01-29T06:47:34;101549.81;;;3.53;72.82
51468;BME280;37545;45.302;-122.946;2023-01-29T06:50:03;101557.56;;;3.55;72.60
51468;BME280;37545;45.302;-122.946;2023-01-29T06:52:32;101567.47;;;3.50;70.21
51468;BME280;37545;45.302;-122.946;2023-01-29T06:55:00;101568.06;;;3.46;70.76
51468;BME280;37545;45.302;-122.946;2023-01-29T06:57:30;101575.72;;;3.46;68.80
51468;BME280;37545;45.302;-122.946;2023-01-29T06:59:58;101584.97;;;3.44;68.33
51468;BME280;37545;45.302;-122.946;2023-01-29T07:02:28;101578.84;;;3.42;68.15
51468;BME280;37545;45.302;-122.946;2023-01-29T07:04:57;101587.28;;;3.41;68.74
51468;BME280;37545;45.302;-122.946;2023-01-29T07:07:25;101597.50;;;3.41;68.47
51468;BME280;37545;45.302;-122.946;2023-01-29T07:09:54;101594.88;;;3.40;67.43
51468;BME280;37545;45.302;-122.946;2023-01-29T07:12:22;101603.97;;;3.36;63.54
51468;BME280;37545;45.302;-122.946;2023-01-29T07:14:51;101609.09;;;3.36;66.20
51468;BME280;37545;45.302;-122.946;2023-01-29T07:17:19;101607.88;;;3.31;63.78
51468;BME280;37545;45.302;-122.946;2023-01-29T07:19:50;101611.13;;;3.28;64.60
51468;BME280;37545;45.302;-122.946;2023-01-29T07:22:18;101603.31;;;3.27;64.63
51468;BME280;37545;45.302;-122.946;2023-01-29T07:24:47;101609.97;;;3.25;64.12
51468;BME280;37545;45.302;-122.946;2023-01-29T07:27:15;101604.78;;;3.23;63.06
51468;BME280;37545;45.302;-122.946;2023-01-29T07:29:44;101605.41;;;3.21;62.50
51468;BME280;37545;45.302;-122.946;2023-01-29T07:32:12;101610.44;;;3.19;63.51
51468;BME280;37545;45.302;-122.946;2023-01-29T07:34:41;101599.09;;;3.15;63.27
51468;BME280;37545;45.302;-122.946;2023-01-29T07:37:11;101610.66;;;3.10;61.10
51468;BME280;37545;45.302;-122.946;2023-01-29T07:39:39;101615.78;;;3.10;61.38
51468;BME280;37545;45.302;-122.946;2023-01-29T07:42:08;101622.22;;;3.05;59.98
51468;BME280;37545;45.302;-122.946;2023-01-29T07:44:43;101626.34;;;3.03;61.32
51468;BME280;37545;45.302;-122.946;2023-01-29T07:47:12;101639.78;;;3.01;59.56
51468;BME280;37545;45.302;-122.946;2023-01-29T07:49:40;101629.97;;;2.95;59.83
51468;BME280;37545;45.302;-122.946;2023-01-29T07:52:11;101641.53;;;2.90;59.37
51468;BME280;37545;45.302;-122.946;2023-01-29T07:54:39;101626.31;;;2.80;59.93
51468;BME280;37545;45.302;-122.946;2023-01-29T07:57:14;101649.75;;;2.86;59.98
51468;BME280;37545;45.302;-122.946;2023-01-29T07:59:43;101647.97;;;2.85;60.05
51468;BME280;37545;45.302;-122.946;2023-01-29T08:02:12;101651.28;;;2.84;59.03
51468;BME280;37545;45.302;-122.946;2023-01-29T08:04:40;101651.06;;;2.81;59.80
51468;BME280;37545;45.302;-122.946;2023-01-29T08:07:10;101645.75;;;2.78;57.63
51468;BME280;37545;45.302;-122.946;2023-01-29T08:09:39;101642.41;;;2.79;61.14
51468;BME280;37545;45.302;-122.946;2023-01-29T08:12:07;101655.19;;;2.79;60.02
51468;BME280;37545;45.302;-122.946;2023-01-29T08:14:36;101653.50;;;2.79;59.48
51468;BME280;37545;45.302;-122.946;2023-01-29T08:17:04;101668.75;;;2.78;60.63
51468;BME280;37545;45.302;-122.946;2023-01-29T08:19:33;101662.63;;;2.76;59.94
51468;BME280;37545;45.302;-122.946;2023-01-29T08:22:02;101663.94;;;2.70;59.50
51468;BME280;37545;45.302;-122.946;2023-01-29T08:24:33;101668.06;;;2.68;58.72
51468;BME280;37545;45.302;-122.946;2023-01-29T08:27:01;101661.13;;;2.67;58.37
51468;BME280;37545;45.302;-122.946;2023-01-29T08:29:30;101670.47;;;2.67;57.97
51468;BME280;37545;45.302;-122.946;2023-01-29T08:31:59;101675.47;;;2.65;58.57
51468;BME280;37545;45.302;-122.946;2023-01-29T08:34:27;101671.91;;;2.63;58.30
51468;BME280;37545;45.302;-122.946;2023-01-29T08:36:56;101677.56;;;2.59;56.88
51468;BME280;37545;45.302;-122.946;2023-01-29T08:39:24;101671.44;;;2.57;57.68
51468;BME280;37545;45.302;-122.946;2023-01-29T08:41:54;101684.22;;;2.57;58.13
51468;BME280;37545;45.302;-122.946;2023-01-29T08:44:23;101688.31;;;2.55;58.20
51468;BME280;37545;45.302;-122.946;2023-01-29T08:46:51;101689.66;;;2.50;56.84
51468;BME280;37545;45.302;-122.946;2023-01-29T08:49:20;101697.19;;;2.48;56.87
51468;BME280;37545;45.302;-122.946;2023-01-29T08:51:48;101695.16;;;2.44;55.29
51468;BME280;37545;45.302;-122.946;2023-01-29T08:54:17;101697.72;;;2.44;56.39
51468;BME280;37545;45.302;-122.946;2023-01-29T08:56:46;101707.84;;;2.43;57.28
51468;BME280;37545;45.302;-122.946;2023-01-29T08:59:16;101703.47;;;2.42;58.29
51468;BME280;37545;45.302;-122.946;2023-01-29T09:01:44;101709.38;;;2.41;57.62
51468;BME280;37545;45.302;-122.946;2023-01-29T09:04:13;101694.56;;;2.37;55.04
51468;BME280;37545;45.302;-122.946;2023-01-29T09:06:41;101700.22;;;2.33;56.17
51468;BME280;37545;45.302;-122.946;2023-01-29T09:09:10;101715.41;;;2.31;55.07
51468;BME280;37545;45.302;-122.946;2023-01-29T09:11:39;101708.41;;;2.28;55.55
51468;BME280;37545;45.302;-122.946;2023-01-29T09:14:08;101693.16;;;2.18;56.06
51468;BME280;37545;45.302;-122.946;2023-01-29T09:16:39;101709.94;;;2.26;56.12
51468;BME280;37545;45.302;-122.946;2023-01-29T09:19:08;101709.72;;;2.23;54.31
51468;BME280;37545;45.302;-122.946;2023-01-29T09:21:36;101709.47;;;2.20;54.37
51468;BME280;37545;45.302;-122.946;2023-01-29T09:24:05;101710.13;;;2.18;53.90
51468;BME280;37545;45.302;-122.946;2023-01-29T09:26:35;101709.22;;;2.17;54.30
51468;BME280;37545;45.302;-122.946;2023-01-29T09:29:05;101716.78;;;2.16;52.98
51468;BME280;37545;45.302;-122.946;2023-01-29T09:31:33;101713.09;;;2.12;54.00
51468;BME280;37545;45.302;-122.946;2023-01-29T09:34:03;101714.38;;;2.07;53.54
51468;BME280;37545;45.302;-122.946;2023-01-29T09:36:32;101725.34;;;2.06;54.21
51468;BME280;37545;45.302;-122.946;2023-01-29T09:39:01;101726.66;;;2.01;53.12
51468;BME280;37545;45.302;-122.946;2023-01-29T09:41:41;101743.50;;;1.99;53.61
51468;BME280;37545;45.302;-122.946;2023-01-29T09:44:21;101752.47;;;1.94;52.96
51468;BME280;37545;45.302;-122.946;2023-01-29T09:46:52;101751.44;;;1.92;53.76
51468;BME280;37545;45.302;-122.946;2023-01-29T09:49:27;101757.34;;;1.91;53.45
51468;BME280;37545;45.302;-122.946;2023-01-29T09:52:00;101759.63;;;1.87;51.69
51468;BME280;37545;45.302;-122.946;2023-01-29T09:54:33;101753.78;;;1.78;54.49
51468;BME280;37545;45.302;-122.946;2023-01-29T09:57:09;101771.25;;;1.84;54.26
51468;BME280;37545;45.302;-122.946;2023-01-29T09:59:41;101771.78;;;1.80;53.82
51468;BME280;37545;45.302;-122.946;2023-01-29T10:02:18;101770.88;;;1.79;52.59
51468;BME280;37545;45.302;-122.946;2023-01-29T10:05:14;101790.28;;;1.77;52.93
51468;BME280;37545;45.302;-122.946;2023-01-29T10:08:16;101796.13;;;1.76;53.34
51468;BME280;37545;45.302;-122.946;2023-01-29T10:10:50;101802.81;;;1.74;53.78
51468;BME280;37545;45.302;-122.946;2023-01-29T10:13:28;101810.09;;;1.70;53.25
51468;BME280;37545;45.302;-122.946;2023-01-29T10:16:12;101807.53;;;1.70;52.89
51468;BME280;37545;45.302;-122.946;2023-01-29T10:22:08;101813.66;;;1.61;52.89
51468;BME280;37545;45.302;-122.946;2023-01-29T10:24:49;101820.94;;;1.57;51.92
51468;BME280;37545;45.302;-122.946;2023-01-29T10:27:20;101840.31;;;1.55;52.44
51468;BME280;37545;45.302;-122.946;2023-01-29T10:29:51;101846.94;;;1.53;52.05
51468;BME280;37545;45.302;-122.946;2023-01-29T10:32:24;101849.25;;;1.50;52.57
51468;BME280;37545;45.302;-122.946;2023-01-29T10:34:56;101843.75;;;1.35;51.39
51468;BME280;37545;45.302;-122.946;2023-01-29T10:37:34;101860.09;;;1.47;51.99
51468;BME280;37545;45.302;-122.946;2023-01-29T10:40:18;101877.94;;;1.47;52.41
51468;BME280;37545;45.302;-122.946;2023-01-29T10:42:54;101876.28;;;1.48;52.22
51468;BME280;37545;45.302;-122.946;2023-01-29T10:45:30;101894.13;;;1.48;52.07
51468;BME280;37545;45.302;-122.946;2023-01-29T10:48:30;101897.81;;;1.51;51.95
51468;BME280;37545;45.302;-122.946;2023-01-29T10:51:08;101904.88;;;1.54;51.07
51468;BME280;37545;45.302;-122.946;2023-01-29T10:53:52;101908.41;;;1.56;50.19
51468;BME280;37545;45.302;-122.946;2023-01-29T10:56:40;101907.78;;;1.58;50.65
51468;BME280;37545;45.302;-122.946;2023-01-29T10:59:27;101901.91;;;1.59;51.45
51468;BME280;37545;45.302;-122.946;2023-01-29T11:02:00;101905.34;;;1.60;50.79
51468;BME280;37545;45.302;-122.946;2023-01-29T11:04:29;101910.44;;;1.60;48.82
51468;BME280;37545;45.302;-122.946;2023-01-29T11:06:59;101908.03;;;1.61;49.67
51468;BME280;37545;45.302;-122.946;2023-01-29T11:09:33;101915.84;;;1.63;50.01
51468;BME280;37545;45.302;-122.946;2023-01-29T11:12:08;101918.25;;;1.61;48.71
51468;BME280;37545;45.302;-122.946;2023-01-29T11:14:43;101915.56;;;1.60;49.90
51468;BME280;37545;45.302;-122.946;2023-01-29T11:17:16;101926.53;;;1.59;49.18
51468;BME280;37545;45.302;-122.946;2023-01-29T11:19:46;101938.41;;;1.58;49.49
51468;BME280;37545;45.302;-122.946;2023-01-29T11:22:17;101949.50;;;1.59;49.30
51468;BME280;37545;45.302;-122.946;2023-01-29T11:25:07;101950.25;;;1.58;48.92
51468;BME280;37545;45.302;-122.946;2023-01-29T11:27:43;101957.16;;;1.59;48.86
51468;BME280;37545;45.302;-122.946;2023-01-29T11:30:20;101959.69;;;1.59;48.57
51468;BME280;37545;45.302;-122.946;2023-01-29T11:32:55;101969.91;;;1.59;48.75
51468;BME280;37545;45.302;-122.946;2023-01-29T11:35:26;101963.91;;;1.58;48.94
51468;BME280;37545;45.302;-122.946;2023-01-29T11:38:06;101969.91;;;1.59;49.88
51468;BME280;37545;45.302;-122.946;2023-01-29T11:40:38;101964.81;;;1.59;49.38
51468;BME280;37545;45.302;-122.946;2023-01-29T11:43:18;101969.91;;;1.59;47.55
51468;BME280;37545;45.302;-122.946;2023-01-29T11:45:49;101968.88;;;1.57;47.89
51468;BME280;37545;45.302;-122.946;2023-01-29T11:48:19;101986.88;;;1.58;49.48
51468;BME280;37545;45.302;-122.946;2023-01-29T11:50:54;101988.50;;;1.58;49.06
51468;BME280;37545;45.302;-122.946;2023-01-29T11:53:37;101986.75;;;1.57;49.70
51468;BME280;37545;45.302;-122.946;2023-01-29T11:56:17;101988.41;;;1.56;49.65
51468;BME280;37545;45.302;-122.946;2023-01-29T11:58:48;101997.56;;;1.54;48.59
51468;BME280;37545;45.302;-122.946;2023-01-29T12:01:29;102002.78;;;1.56;48.11
51468;BME280;37545;45.302;-122.946;2023-01-29T12:03:59;101998.47;;;1.55;48.07
51468;BME280;37545;45.302;-122.946;2023-01-29T12:06:33;102007.78;;;1.54;49.38
51468;BME280;37545;45.302;-122.946;2023-01-29T12:09:08;102009.94;;;1.50;49.52
51468;BME280;37545;45.302;-122.946;2023-01-29T12:11:40;102023.44;;;1.49;50.19
51468;BME280;37545;45.302;-122.946;2023-01-29T12:14:23;102035.16;;;1.46;48.52
51468;BME280;37545;45.302;-122.946;2023-01-29T12:16:57;102050.47;;;1.46;48.13
51468;BME280;37545;45.302;-122.946;2023-01-29T12:19:27;102042.69;;;1.45;48.80
51468;BME280;37545;45.302;-122.946;2023-01-29T12:22:01;102042.41;;;1.42;47.69
51468;BME280;37545;45.302;-122.946;2023-01-29T12:24:34;102051.72;;;1.41;47.64
51468;BME280;37545;45.302;-122.946;2023-01-29T12:27:13;102052.75;;;1.43;48.60
51468;BME280;37545;45.302;-122.946;2023-01-29T12:29:46;102055.31;;;1.43;47.53
51468;BME280;37545;45.302;-122.946;2023-01-29T12:32:26;102063.72;;;1.42;46.70
51468;BME280;37545;45.302;-122.946;2023-01-29T12:35:01;102075.72;;;1.43;46.40
51468;BME280;37545;45.302;-122.946;2023-01-29T12:37:39;102067.91;;;1.42;46.72
51468;BME280;37545;45.302;-122.946;2023-01-29T12:40:14;102076.19;;;1.39;47.73
51468;BME280;37545;45.302;-122.946;2023-01-29T12:42:47;102085.50;;;1.39;47.72
51468;BME280;37545;45.302;-122.946;2023-01-29T12:45:18;102091.38;;;1.38;48.97
51468;BME280;37545;45.302;-122.946;2023-01-29T12:47:48;102092.91;;;1.36;48.13
51468;BME280;37545;45.302;-122.946;2023-01-29T12:50:21;102104.00;;;1.36;47.61
51468;BME280;37545;45.302;-122.946;2023-01-29T12:52:52;102102.97;;;1.34;47.59
51468;BME280;37545;45.302;-122.946;2023-01-29T12:55:25;102106.69;;;1.38;46.54
51468;BME280;37545;45.302;-122.946;2023-01-29T12:57:58;102117.78;;;1.38;48.05
51468;BME280;37545;45.302;-122.946;2023-01-29T13:00:29;102117.78;;;1.38;47.47
51468;BME280;37545;45.302;-122.946;2023-01-29T13:03:02;102118.25;;;1.34;47.31